sensor_id;sensor_type;location;lat;lon;timestamp;temperature;humidity
15113;DHT22;7657;50.140;7.076;2022-10-16T00:02:20;14.70;99.90
15113;DHT22;7657;50.140;7.076;2022-10-16T00:04:47;14.80;99.90
15113;DHT22;7657;50.140;7.076;2022-10-16T00:07:14;14.80;99.90
15113;DHT22;7657;50.140;7.076;2022-10-16T00:09:41;14.80;99.90
15113;DHT22;7657;50.140;7.076;2022-10-16T00:12:09;14.70;99.90
15113;DHT22;7657;50.140;7.076;2022-10-16T00:14:36;14.80;99.90
15113;DHT22;7657;50.140;7.076;2022-10-16T00:17:06;14.80;99.90
15113;DHT22;7657;50.140;7.076;2022-10-16T00:19:33;14.80;99.90
15113;DHT22;7657;50.140;7.076;2022-10-16T00:22:00;14.80;99.90
15113;DHT22;7657;50.140;7.076;2022-10-16T00:24:26;14.80;99.90
15113;DHT22;7657;50.140;7.076;2022-10-16T00:26:53;14.80;99.90
15113;DHT22;7657;50.140;7.076;2022-10-16T00:29:22;14.80;99.90
15113;DHT22;7657;50.140;7.076;2022-10-16T00:31:49;14.80;99.90
15113;DHT22;7657;50.140;7.076;2022-10-16T00:34:15;14.80;99.90
15113;DHT22;7657;50.140;7.076;2022-10-16T00:36:42;14.60;99.90
15113;DHT22;7657;50.140;7.076;2022-10-16T00:39:09;14.50;99.90
15113;DHT22;7657;50.140;7.076;2022-10-16T00:41:36;14.50;99.90
15113;DHT22;7657;50.140;7.076;2022-10-16T00:44:40;14.50;99.90
15113;DHT22;7657;50.140;7.076;2022-10-16T00:46:52;14.60;99.90
15113;DHT22;7657;50.140;7.076;2022-10-16T00:49:19;14.60;99.90
15113;DHT22;7657;50.140;7.076;2022-10-16T00:51:49;14.50;99.90
15113;DHT22;7657;50.140;7.076;2022-10-16T00:54:19;14.60;99.90
15113;DHT22;7657;50.140;7.076;2022-10-16T00:56:47;14.60;99.90
15113;DHT22;7657;50.140;7.076;2022-10-16T00:59:18;14.60;99.90
15113;DHT22;7657;50.140;7.076;2022-10-16T01:01:45;14.60;99.90
15113;DHT22;7657;50.140;7.076;2022-10-16T01:04:13;14.60;99.90
15113;DHT22;7657;50.140;7.076;2022-10-16T01:06:46;14.50;99.90
15113;DHT22;7657;50.140;7.076;2022-10-16T01:09:21;14.40;99.90
15113;DHT22;7657;50.140;7.076;2022-10-16T01:11:57;14.40;99.90
15113;DHT22;7657;50.140;7.076;2022-10-16T01:14:34;14.40;99.90
15113;DHT22;7657;50.140;7.076;2022-10-16T01:17:06;14.50;99.90
15113;DHT22;7657;50.140;7.076;2022-10-16T01:19:50;14.50;99.90
15113;DHT22;7657;50.140;7.076;2022-10-16T01:22:23;14.50;99.90
15113;DHT22;7657;50.140;7.076;2022-10-16T01:24:55;14.50;99.90
15113;DHT22;7657;50.140;7.076;2022-10-16T01:27:25;14.40;99.90
15113;DHT22;7657;50.140;7.076;2022-10-16T01:29:56;14.40;99.90
15113;DHT22;7657;50.140;7.076;2022-10-16T01:32:28;14.40;99.90
15113;DHT22;7657;50.140;7.076;2022-10-16T01:35:01;14.40;99.90
15113;DHT22;7657;50.140;7.076;2022-10-16T01:37:34;14.40;99.90
15113;DHT22;7657;50.140;7.076;2022-10-16T01:40:05;14.50;99.90
15113;DHT22;7657;50.140;7.076;2022-10-16T01:42:37;14.50;99.90
15113;DHT22;7657;50.140;7.076;2022-10-16T01:45:07;14.50;99.90
15113;DHT22;7657;50.140;7.076;2022-10-16T01:47:37;14.30;99.90
15113;DHT22;7657;50.140;7.076;2022-10-16T01:50:07;14.20;99.90
15113;DHT22;7657;50.140;7.076;2022-10-16T01:52:37;14.20;99.90
15113;DHT22;7657;50.140;7.076;2022-10-16T01:55:06;14.30;99.90
15113;DHT22;7657;50.140;7.076;2022-10-16T01:57:37;14.30;99.90
15113;DHT22;7657;50.140;7.076;2022-10-16T02:00:08;14.30;99.90
15113;DHT22;7657;50.140;7.076;2022-10-16T02:02:38;14.40;99.90
15113;DHT22;7657;50.140;7.076;2022-10-16T02:05:12;14.40;99.90
15113;DHT22;7657;50.140;7.076;2022-10-16T02:07:42;14.40;99.90
15113;DHT22;7657;50.140;7.076;2022-10-16T02:10:10;14.40;99.90
15113;DHT22;7657;50.140;7.076;2022-10-16T02:12:41;14.40;99.90
15113;DHT22;7657;50.140;7.076;2022-10-16T02:15:11;14.40;99.90
15113;DHT22;7657;50.140;7.076;2022-10-16T02:17:38;14.50;99.90
15113;DHT22;7657;50.140;7.076;2022-10-16T02:20:06;14.50;99.90
15113;DHT22;7657;50.140;7.076;2022-10-16T02:22:35;14.50;99.90
15113;DHT22;7657;50.140;7.076;2022-10-16T02:25:06;14.50;99.90
15113;DHT22;7657;50.140;7.076;2022-10-16T02:27:37;14.40;99.90
15113;DHT22;7657;50.140;7.076;2022-10-16T02:30:11;14.40;99.90
15113;DHT22;7657;50.140;7.076;2022-10-16T02:32:42;14.40;99.90
15113;DHT22;7657;50.140;7.076;2022-10-16T02:35:09;14.50;99.90
15113;DHT22;7657;50.140;7.076;2022-10-16T02:37:37;14.50;99.90
15113;DHT22;7657;50.140;7.076;2022-10-16T02:40:06;14.50;99.90
15113;DHT22;7657;50.140;7.076;2022-10-16T02:42:34;14.50;99.90
15113;DHT22;7657;50.140;7.076;2022-10-16T02:45:02;14.60;99.90
15113;DHT22;7657;50.140;7.076;2022-10-16T02:47:30;14.60;99.90
15113;DHT22;7657;50.140;7.076;2022-10-16T02:49:57;14.60;99.90
15113;DHT22;7657;50.140;7.076;2022-10-16T02:52:24;14.50;99.90
15113;DHT22;7657;50.140;7.076;2022-10-16T02:54:51;14.50;99.90
15113;DHT22;7657;50.140;7.076;2022-10-16T02:57:18;14.50;99.90
15113;DHT22;7657;50.140;7.076;2022-10-16T02:59:45;14.50;99.90
15113;DHT22;7657;50.140;7.076;2022-10-16T03:02:12;14.40;99.90
15113;DHT22;7657;50.140;7.076;2022-10-16T03:04:40;14.40;99.90
15113;DHT22;7657;50.140;7.076;2022-10-16T03:07:07;14.40;99.90
15113;DHT22;7657;50.140;7.076;2022-10-16T03:09:34;14.40;99.90
15113;DHT22;7657;50.140;7.076;2022-10-16T03:12:01;14.40;99.90
15113;DHT22;7657;50.140;7.076;2022-10-16T03:14:28;14.40;99.90
15113;DHT22;7657;50.140;7.076;2022-10-16T03:16:54;14.30;99.90
15113;DHT22;7657;50.140;7.076;2022-10-16T03:19:21;14.30;99.90
15113;DHT22;7657;50.140;7.076;2022-10-16T03:21:50;14.30;99.90
15113;DHT22;7657;50.140;7.076;2022-10-16T03:24:17;14.30;99.90
15113;DHT22;7657;50.140;7.076;2022-10-16T03:26:43;14.30;99.90
15113;DHT22;7657;50.140;7.076;2022-10-16T03:29:10;14.30;99.90
15113;DHT22;7657;50.140;7.076;2022-10-16T03:31:37;14.30;99.90
15113;DHT22;7657;50.140;7.076;2022-10-16T03:34:04;14.30;99.90
15113;DHT22;7657;50.140;7.076;2022-10-16T03:36:31;14.30;99.90
15113;DHT22;7657;50.140;7.076;2022-10-16T03:38:59;14.20;99.90
15113;DHT22;7657;50.140;7.076;2022-10-16T03:41:26;14.20;99.90
15113;DHT22;7657;50.140;7.076;2022-10-16T03:43:53;14.20;99.90
15113;DHT22;7657;50.140;7.076;2022-10-16T03:46:20;14.20;99.90
15113;DHT22;7657;50.140;7.076;2022-10-16T03:48:47;14.30;99.90
15113;DHT22;7657;50.140;7.076;2022-10-16T03:51:14;14.30;99.90
15113;DHT22;7657;50.140;7.076;2022-10-16T03:53:41;14.20;99.90
15113;DHT22;7657;50.140;7.076;2022-10-16T03:56:09;14.20;99.90
15113;DHT22;7657;50.140;7.076;2022-10-16T03:58:36;14.20;99.90
15113;DHT22;7657;50.140;7.076;2022-10-16T04:01:03;14.20;99.90
15113;DHT22;7657;50.140;7.076;2022-10-16T04:03:30;14.10;99.90
15113;DHT22;7657;50.140;7.076;2022-10-16T04:05:57;14.10;99.90
15113;DHT22;7657;50.140;7.076;2022-10-16T04:08:24;14.10;99.90
15113;DHT22;7657;50.140;7.076;2022-10-16T04:10:51;14.10;99.90
15113;DHT22;7657;50.140;7.076;2022-10-16T04:13:19;14.10;99.90
15113;DHT22;7657;50.140;7.076;2022-10-16T04:15:46;14.20;99.90
15113;DHT22;7657;50.140;7.076;2022-10-16T04:18:13;14.10;99.90
15113;DHT22;7657;50.140;7.076;2022-10-16T04:20:40;14.10;99.90
15113;DHT22;7657;50.140;7.076;2022-10-16T04:23:07;14.20;99.90
15113;DHT22;7657;50.140;7.076;2022-10-16T04:25:34;14.20;99.90
15113;DHT22;7657;50.140;7.076;2022-10-16T04:28:01;14.20;99.90
15113;DHT22;7657;50.140;7.076;2022-10-16T04:30:30;14.20;99.90
15113;DHT22;7657;50.140;7.076;2022-10-16T04:32:57;14.30;99.90
15113;DHT22;7657;50.140;7.076;2022-10-16T04:35:23;14.30;99.90
15113;DHT22;7657;50.140;7.076;2022-10-16T04:37:51;14.30;99.90
15113;DHT22;7657;50.140;7.076;2022-10-16T04:40:18;14.30;99.90
15113;DHT22;7657;50.140;7.076;2022-10-16T04:42:44;14.30;99.90
15113;DHT22;7657;50.140;7.076;2022-10-16T04:45:11;14.30;99.90
15113;DHT22;7657;50.140;7.076;2022-10-16T04:47:40;14.20;99.90
15113;DHT22;7657;50.140;7.076;2022-10-16T04:50:07;14.20;99.90
15113;DHT22;7657;50.140;7.076;2022-10-16T04:52:34;14.10;99.90
15113;DHT22;7657;50.140;7.076;2022-10-16T04:55:01;14.10;99.90
15113;DHT22;7657;50.140;7.076;2022-10-16T04:57:28;14.00;99.90
15113;DHT22;7657;50.140;7.076;2022-10-16T04:59:55;14.00;99.90
15113;DHT22;7657;50.140;7.076;2022-10-16T05:02:22;14.10;99.90
15113;DHT22;7657;50.140;7.076;2022-10-16T05:04:51;14.10;99.90
15113;DHT22;7657;50.140;7.076;2022-10-16T05:07:18;14.10;99.90
15113;DHT22;7657;50.140;7.076;2022-10-16T05:09:45;14.20;99.90
15113;DHT22;7657;50.140;7.076;2022-10-16T05:12:12;14.20;99.90
15113;DHT22;7657;50.140;7.076;2022-10-16T05:14:38;14.20;99.90
15113;DHT22;7657;50.140;7.076;2022-10-16T05:17:06;14.20;99.90
15113;DHT22;7657;50.140;7.076;2022-10-16T05:19:33;14.20;99.90
15113;DHT22;7657;50.140;7.076;2022-10-16T05:22:01;14.30;99.90
15113;DHT22;7657;50.140;7.076;2022-10-16T05:24:28;14.30;99.90
15113;DHT22;7657;50.140;7.076;2022-10-16T05:26:55;14.30;99.90
15113;DHT22;7657;50.140;7.076;2022-10-16T05:29:22;14.30;99.90
15113;DHT22;7657;50.140;7.076;2022-10-16T05:31:51;14.30;99.90
15113;DHT22;7657;50.140;7.076;2022-10-16T05:34:18;14.30;99.90
15113;DHT22;7657;50.140;7.076;2022-10-16T05:36:45;14.40;99.90
15113;DHT22;7657;50.140;7.076;2022-10-16T05:39:14;14.40;99.90
15113;DHT22;7657;50.140;7.076;2022-10-16T05:41:41;14.40;99.90
15113;DHT22;7657;50.140;7.076;2022-10-16T05:44:08;14.40;99.90
15113;DHT22;7657;50.140;7.076;2022-10-16T05:46:35;14.40;99.90
15113;DHT22;7657;50.140;7.076;2022-10-16T05:49:02;14.40;99.90
15113;DHT22;7657;50.140;7.076;2022-10-16T05:51:29;14.40;99.90
15113;DHT22;7657;50.140;7.076;2022-10-16T05:53:56;14.40;99.90
15113;DHT22;7657;50.140;7.076;2022-10-16T05:56:24;14.40;99.90
15113;DHT22;7657;50.140;7.076;2022-10-16T05:58:51;14.40;99.90
15113;DHT22;7657;50.140;7.076;2022-10-16T06:01:19;14.40;99.90
15113;DHT22;7657;50.140;7.076;2022-10-16T06:03:49;14.40;99.90
15113;DHT22;7657;50.140;7.076;2022-10-16T06:06:17;14.40;99.90
15113;DHT22;7657;50.140;7.076;2022-10-16T06:08:45;14.40;99.90
15113;DHT22;7657;50.140;7.076;2022-10-16T06:11:14;14.40;99.90
15113;DHT22;7657;50.140;7.076;2022-10-16T06:13:43;14.40;99.90
15113;DHT22;7657;50.140;7.076;2022-10-16T06:16:12;14.40;99.90
15113;DHT22;7657;50.140;7.076;2022-10-16T06:18:39;14.40;99.90
15113;DHT22;7657;50.140;7.076;2022-10-16T06:21:10;14.40;99.90
15113;DHT22;7657;50.140;7.076;2022-10-16T06:23:37;14.40;99.90
15113;DHT22;7657;50.140;7.076;2022-10-16T06:26:06;14.50;99.90
15113;DHT22;7657;50.140;7.076;2022-10-16T06:28:33;14.50;99.90
15113;DHT22;7657;50.140;7.076;2022-10-16T06:31:01;14.50;99.90
15113;DHT22;7657;50.140;7.076;2022-10-16T06:33:29;14.50;99.90
15113;DHT22;7657;50.140;7.076;2022-10-16T06:36:00;14.50;99.90
15113;DHT22;7657;50.140;7.076;2022-10-16T06:38:27;14.50;99.90
15113;DHT22;7657;50.140;7.076;2022-10-16T06:40:54;14.50;99.90
15113;DHT22;7657;50.140;7.076;2022-10-16T06:43:21;14.50;99.90
15113;DHT22;7657;50.140;7.076;2022-10-16T06:45:51;14.30;99.90
15113;DHT22;7657;50.140;7.076;2022-10-16T06:48:20;14.30;99.90
15113;DHT22;7657;50.140;7.076;2022-10-16T06:50:56;14.30;99.90
15113;DHT22;7657;50.140;7.076;2022-10-16T06:53:23;14.30;99.90
15113;DHT22;7657;50.140;7.076;2022-10-16T06:55:50;14.40;99.90
15113;DHT22;7657;50.140;7.076;2022-10-16T06:58:17;14.40;99.90
15113;DHT22;7657;50.140;7.076;2022-10-16T07:00:44;14.40;99.90
15113;DHT22;7657;50.140;7.076;2022-10-16T07:03:11;14.40;99.90
15113;DHT22;7657;50.140;7.076;2022-10-16T07:05:40;14.40;99.90
15113;DHT22;7657;50.140;7.076;2022-10-16T07:08:07;14.50;99.90
15113;DHT22;7657;50.140;7.076;2022-10-16T07:10:35;14.50;99.90
15113;DHT22;7657;50.140;7.076;2022-10-16T07:13:02;14.50;99.90
15113;DHT22;7657;50.140;7.076;2022-10-16T07:15:29;14.50;99.90
15113;DHT22;7657;50.140;7.076;2022-10-16T07:17:56;14.40;99.90
15113;DHT22;7657;50.140;7.076;2022-10-16T07:20:22;14.40;99.90
15113;DHT22;7657;50.140;7.076;2022-10-16T07:22:51;14.40;99.90
15113;DHT22;7657;50.140;7.076;2022-10-16T07:25:18;14.40;99.90
15113;DHT22;7657;50.140;7.076;2022-10-16T07:27:45;14.40;99.90
15113;DHT22;7657;50.140;7.076;2022-10-16T07:30:12;14.50;99.90
15113;DHT22;7657;50.140;7.076;2022-10-16T07:32:39;14.50;99.90
15113;DHT22;7657;50.140;7.076;2022-10-16T07:35:07;14.50;99.90
15113;DHT22;7657;50.140;7.076;2022-10-16T07:37:34;14.50;99.90
15113;DHT22;7657;50.140;7.076;2022-10-16T07:40:02;14.50;99.90
15113;DHT22;7657;50.140;7.076;2022-10-16T07:42:29;14.50;99.90
15113;DHT22;7657;50.140;7.076;2022-10-16T07:44:56;14.50;99.90
15113;DHT22;7657;50.140;7.076;2022-10-16T07:47:23;14.50;99.90
15113;DHT22;7657;50.140;7.076;2022-10-16T07:49:50;14.60;99.90
15113;DHT22;7657;50.140;7.076;2022-10-16T07:52:17;14.70;99.90
15113;DHT22;7657;50.140;7.076;2022-10-16T07:54:44;14.60;99.90
15113;DHT22;7657;50.140;7.076;2022-10-16T07:57:12;14.60;99.90
15113;DHT22;7657;50.140;7.076;2022-10-16T07:59:44;14.70;99.90
15113;DHT22;7657;50.140;7.076;2022-10-16T08:02:11;14.70;99.90
15113;DHT22;7657;50.140;7.076;2022-10-16T08:04:38;14.70;99.90
15113;DHT22;7657;50.140;7.076;2022-10-16T08:07:07;14.80;99.90
15113;DHT22;7657;50.140;7.076;2022-10-16T08:09:34;14.80;99.90
15113;DHT22;7657;50.140;7.076;2022-10-16T08:12:01;14.80;99.90
15113;DHT22;7657;50.140;7.076;2022-10-16T08:14:31;14.90;99.90
15113;DHT22;7657;50.140;7.076;2022-10-16T08:16:57;14.90;99.90
15113;DHT22;7657;50.140;7.076;2022-10-16T08:19:24;14.90;99.90
15113;DHT22;7657;50.140;7.076;2022-10-16T08:21:51;14.80;99.90
15113;DHT22;7657;50.140;7.076;2022-10-16T08:24:18;14.80;99.90
15113;DHT22;7657;50.140;7.076;2022-10-16T08:26:45;14.70;99.90
15113;DHT22;7657;50.140;7.076;2022-10-16T08:29:13;14.70;99.90
15113;DHT22;7657;50.140;7.076;2022-10-16T08:31:42;14.70;99.90
15113;DHT22;7657;50.140;7.076;2022-10-16T08:34:08;14.70;99.90
15113;DHT22;7657;50.140;7.076;2022-10-16T08:36:35;14.60;99.90
15113;DHT22;7657;50.140;7.076;2022-10-16T08:39:03;14.60;99.90
15113;DHT22;7657;50.140;7.076;2022-10-16T08:41:48;14.50;99.90
15113;DHT22;7657;50.140;7.076;2022-10-16T08:47:30;14.70;99.90
15113;DHT22;7657;50.140;7.076;2022-10-16T08:50:02;14.70;99.90
15113;DHT22;7657;50.140;7.076;2022-10-16T08:52:38;14.70;99.90
15113;DHT22;7657;50.140;7.076;2022-10-16T08:55:06;14.70;99.90
15113;DHT22;7657;50.140;7.076;2022-10-16T08:57:33;14.80;99.90
15113;DHT22;7657;50.140;7.076;2022-10-16T09:00:08;14.80;99.90
15113;DHT22;7657;50.140;7.076;2022-10-16T09:02:48;14.80;99.90
15113;DHT22;7657;50.140;7.076;2022-10-16T09:05:27;14.70;99.90
15113;DHT22;7657;50.140;7.076;2022-10-16T09:08:03;14.80;99.90
15113;DHT22;7657;50.140;7.076;2022-10-16T09:10:41;14.90;99.90
15113;DHT22;7657;50.140;7.076;2022-10-16T09:13:19;14.90;99.90
15113;DHT22;7657;50.140;7.076;2022-10-16T09:15:53;14.80;99.90
15113;DHT22;7657;50.140;7.076;2022-10-16T09:18:27;14.90;99.90
15113;DHT22;7657;50.140;7.076;2022-10-16T09:21:01;15.00;99.90
15113;DHT22;7657;50.140;7.076;2022-10-16T09:23:35;15.00;99.90
15113;DHT22;7657;50.140;7.076;2022-10-16T09:26:03;15.10;99.90
15113;DHT22;7657;50.140;7.076;2022-10-16T09:28:31;15.10;99.90
15113;DHT22;7657;50.140;7.076;2022-10-16T09:30:58;15.20;99.90
15113;DHT22;7657;50.140;7.076;2022-10-16T09:33:29;15.10;99.90
15113;DHT22;7657;50.140;7.076;2022-10-16T09:35:57;15.20;99.90
15113;DHT22;7657;50.140;7.076;2022-10-16T09:38:26;15.30;99.90
15113;DHT22;7657;50.140;7.076;2022-10-16T09:40:55;15.30;99.90
15113;DHT22;7657;50.140;7.076;2022-10-16T09:43:24;15.30;99.90
15113;DHT22;7657;50.140;7.076;2022-10-16T09:45:54;15.40;99.90
15113;DHT22;7657;50.140;7.076;2022-10-16T09:48:22;15.50;99.90
15113;DHT22;7657;50.140;7.076;2022-10-16T09:50:59;15.50;99.90
15113;DHT22;7657;50.140;7.076;2022-10-16T09:53:37;15.60;99.90
15113;DHT22;7657;50.140;7.076;2022-10-16T09:56:05;15.60;99.90
15113;DHT22;7657;50.140;7.076;2022-10-16T09:58:32;15.70;99.90
15113;DHT22;7657;50.140;7.076;2022-10-16T10:00:59;15.70;99.90
15113;DHT22;7657;50.140;7.076;2022-10-16T10:03:38;15.80;99.90
15113;DHT22;7657;50.140;7.076;2022-10-16T10:06:17;15.90;99.90
15113;DHT22;7657;50.140;7.076;2022-10-16T10:08:59;15.90;99.90
15113;DHT22;7657;50.140;7.076;2022-10-16T10:11:44;16.00;99.90
15113;DHT22;7657;50.140;7.076;2022-10-16T10:14:21;16.10;99.90
15113;DHT22;7657;50.140;7.076;2022-10-16T10:16:50;16.20;99.90
15113;DHT22;7657;50.140;7.076;2022-10-16T10:19:17;16.10;99.90
15113;DHT22;7657;50.140;7.076;2022-10-16T10:21:47;16.20;99.90
15113;DHT22;7657;50.140;7.076;2022-10-16T10:24:15;16.30;99.90
15113;DHT22;7657;50.140;7.076;2022-10-16T10:26:52;16.30;99.90
15113;DHT22;7657;50.140;7.076;2022-10-16T10:29:31;16.30;99.90
15113;DHT22;7657;50.140;7.076;2022-10-16T10:32:11;16.30;99.90
15113;DHT22;7657;50.140;7.076;2022-10-16T10:34:55;16.30;99.90
15113;DHT22;7657;50.140;7.076;2022-10-16T10:37:38;16.30;99.90
15113;DHT22;7657;50.140;7.076;2022-10-16T10:40:17;16.30;99.90
15113;DHT22;7657;50.140;7.076;2022-10-16T10:42:53;16.40;99.90
15113;DHT22;7657;50.140;7.076;2022-10-16T10:45:26;16.40;99.90
15113;DHT22;7657;50.140;7.076;2022-10-16T10:48:12;16.50;99.90
15113;DHT22;7657;50.140;7.076;2022-10-16T10:50:45;16.50;99.90
15113;DHT22;7657;50.140;7.076;2022-10-16T10:53:29;16.60;99.90
15113;DHT22;7657;50.140;7.076;2022-10-16T10:56:07;16.70;99.90
15113;DHT22;7657;50.140;7.076;2022-10-16T10:59:00;16.80;99.90
15113;DHT22;7657;50.140;7.076;2022-10-16T11:01:35;16.80;99.90
15113;DHT22;7657;50.140;7.076;2022-10-16T11:04:39;16.80;99.90
15113;DHT22;7657;50.140;7.076;2022-10-16T11:07:15;16.80;99.90
15113;DHT22;7657;50.140;7.076;2022-10-16T11:09:47;16.80;99.90
15113;DHT22;7657;50.140;7.076;2022-10-16T11:12:18;16.80;99.90
15113;DHT22;7657;50.140;7.076;2022-10-16T11:14:49;16.80;99.90
15113;DHT22;7657;50.140;7.076;2022-10-16T11:17:23;16.80;99.90
15113;DHT22;7657;50.140;7.076;2022-10-16T11:19:55;16.80;99.90
15113;DHT22;7657;50.140;7.076;2022-10-16T11:22:29;16.90;99.90
15113;DHT22;7657;50.140;7.076;2022-10-16T11:25:02;17.00;99.90
15113;DHT22;7657;50.140;7.076;2022-10-16T11:27:37;17.10;99.90
15113;DHT22;7657;50.140;7.076;2022-10-16T11:30:12;17.20;99.90
15113;DHT22;7657;50.140;7.076;2022-10-16T11:32:52;17.20;99.90
15113;DHT22;7657;50.140;7.076;2022-10-16T11:35:24;17.20;99.90
15113;DHT22;7657;50.140;7.076;2022-10-16T11:37:53;17.20;99.90
15113;DHT22;7657;50.140;7.076;2022-10-16T11:40:28;17.20;99.90
15113;DHT22;7657;50.140;7.076;2022-10-16T11:43:00;17.40;99.90
15113;DHT22;7657;50.140;7.076;2022-10-16T11:45:34;17.40;99.90
15113;DHT22;7657;50.140;7.076;2022-10-16T11:48:12;17.40;99.90
15113;DHT22;7657;50.140;7.076;2022-10-16T11:50:45;17.40;99.90
15113;DHT22;7657;50.140;7.076;2022-10-16T11:53:19;17.50;99.90
15113;DHT22;7657;50.140;7.076;2022-10-16T11:55:51;17.40;99.90
15113;DHT22;7657;50.140;7.076;2022-10-16T11:58:24;17.40;99.90
15113;DHT22;7657;50.140;7.076;2022-10-16T12:00:59;17.30;99.90
15113;DHT22;7657;50.140;7.076;2022-10-16T12:03:31;17.20;99.90
15113;DHT22;7657;50.140;7.076;2022-10-16T12:06:14;17.20;99.90
15113;DHT22;7657;50.140;7.076;2022-10-16T12:08:49;17.30;99.90
15113;DHT22;7657;50.140;7.076;2022-10-16T12:11:32;17.20;99.90
15113;DHT22;7657;50.140;7.076;2022-10-16T12:14:17;17.20;99.90
15113;DHT22;7657;50.140;7.076;2022-10-16T12:16:52;17.20;99.90
15113;DHT22;7657;50.140;7.076;2022-10-16T12:19:21;17.20;99.90
15113;DHT22;7657;50.140;7.076;2022-10-16T12:21:49;17.20;99.90
15113;DHT22;7657;50.140;7.076;2022-10-16T12:24:27;17.20;99.90
15113;DHT22;7657;50.140;7.076;2022-10-16T12:26:57;17.20;99.90
15113;DHT22;7657;50.140;7.076;2022-10-16T12:29:32;17.20;99.90
15113;DHT22;7657;50.140;7.076;2022-10-16T12:31:59;17.30;99.90
15113;DHT22;7657;50.140;7.076;2022-10-16T12:34:29;17.20;99.90
15113;DHT22;7657;50.140;7.076;2022-10-16T12:37:08;17.20;99.90
15113;DHT22;7657;50.140;7.076;2022-10-16T12:39:36;17.20;99.90
15113;DHT22;7657;50.140;7.076;2022-10-16T12:42:18;17.30;99.90
15113;DHT22;7657;50.140;7.076;2022-10-16T12:44:46;17.40;99.90
15113;DHT22;7657;50.140;7.076;2022-10-16T12:47:21;17.50;99.90
15113;DHT22;7657;50.140;7.076;2022-10-16T12:49:50;17.60;99.90
15113;DHT22;7657;50.140;7.076;2022-10-16T12:52:26;17.70;99.90
15113;DHT22;7657;50.140;7.076;2022-10-16T12:54:56;17.80;99.90
15113;DHT22;7657;50.140;7.076;2022-10-16T12:57:36;17.80;99.90
15113;DHT22;7657;50.140;7.076;2022-10-16T13:00:13;17.90;99.90
15113;DHT22;7657;50.140;7.076;2022-10-16T13:02:57;17.90;99.90
15113;DHT22;7657;50.140;7.076;2022-10-16T13:05:34;17.90;99.90
15113;DHT22;7657;50.140;7.076;2022-10-16T13:08:16;17.90;99.90
15113;DHT22;7657;50.140;7.076;2022-10-16T13:10:58;17.90;99.90
15113;DHT22;7657;50.140;7.076;2022-10-16T13:13:41;18.00;99.90
15113;DHT22;7657;50.140;7.076;2022-10-16T13:16:17;17.90;99.90
15113;DHT22;7657;50.140;7.076;2022-10-16T13:18:58;17.80;99.90
15113;DHT22;7657;50.140;7.076;2022-10-16T13:21:35;17.80;99.90
15113;DHT22;7657;50.140;7.076;2022-10-16T13:24:14;17.60;99.90
15113;DHT22;7657;50.140;7.076;2022-10-16T13:26:49;17.70;99.90
15113;DHT22;7657;50.140;7.076;2022-10-16T13:29:20;17.80;99.90
15113;DHT22;7657;50.140;7.076;2022-10-16T13:31:48;17.70;99.90
15113;DHT22;7657;50.140;7.076;2022-10-16T13:34:17;17.70;99.90
15113;DHT22;7657;50.140;7.076;2022-10-16T13:36:46;17.60;99.90
15113;DHT22;7657;50.140;7.076;2022-10-16T13:39:21;17.60;99.90
15113;DHT22;7657;50.140;7.076;2022-10-16T13:42:00;17.70;99.90
15113;DHT22;7657;50.140;7.076;2022-10-16T13:44:33;17.70;99.90
15113;DHT22;7657;50.140;7.076;2022-10-16T13:47:02;17.80;99.90
15113;DHT22;7657;50.140;7.076;2022-10-16T13:49:29;17.80;99.90
15113;DHT22;7657;50.140;7.076;2022-10-16T13:51:58;17.80;99.90
15113;DHT22;7657;50.140;7.076;2022-10-16T13:54:26;17.80;99.90
15113;DHT22;7657;50.140;7.076;2022-10-16T13:56:54;17.80;99.90
15113;DHT22;7657;50.140;7.076;2022-10-16T13:59:25;17.80;99.90
15113;DHT22;7657;50.140;7.076;2022-10-16T14:01:56;17.80;99.90
15113;DHT22;7657;50.140;7.076;2022-10-16T14:04:26;17.90;99.90
15113;DHT22;7657;50.140;7.076;2022-10-16T14:06:55;17.90;99.90
15113;DHT22;7657;50.140;7.076;2022-10-16T14:09:24;17.80;99.90
15113;DHT22;7657;50.140;7.076;2022-10-16T14:11:53;17.90;99.90
15113;DHT22;7657;50.140;7.076;2022-10-16T14:14:22;17.90;99.90
15113;DHT22;7657;50.140;7.076;2022-10-16T14:16:50;17.90;99.90
15113;DHT22;7657;50.140;7.076;2022-10-16T14:19:21;17.90;99.90
15113;DHT22;7657;50.140;7.076;2022-10-16T14:21:49;17.90;99.90
15113;DHT22;7657;50.140;7.076;2022-10-16T14:24:26;18.00;99.90
15113;DHT22;7657;50.140;7.076;2022-10-16T14:26:53;18.00;99.90
15113;DHT22;7657;50.140;7.076;2022-10-16T14:29:23;18.10;99.90
15113;DHT22;7657;50.140;7.076;2022-10-16T14:32:00;18.10;99.90
15113;DHT22;7657;50.140;7.076;2022-10-16T14:34:33;18.10;99.90
15113;DHT22;7657;50.140;7.076;2022-10-16T14:37:06;18.10;99.90
15113;DHT22;7657;50.140;7.076;2022-10-16T14:39:35;18.10;99.90
15113;DHT22;7657;50.140;7.076;2022-10-16T14:42:02;18.10;99.90
15113;DHT22;7657;50.140;7.076;2022-10-16T14:44:32;18.10;99.90
15113;DHT22;7657;50.140;7.076;2022-10-16T14:47:07;18.00;99.90
15113;DHT22;7657;50.140;7.076;2022-10-16T14:49:37;18.00;99.90
15113;DHT22;7657;50.140;7.076;2022-10-16T14:52:09;18.00;99.90
15113;DHT22;7657;50.140;7.076;2022-10-16T14:54:36;18.00;99.90
15113;DHT22;7657;50.140;7.076;2022-10-16T14:57:03;18.00;99.90
15113;DHT22;7657;50.140;7.076;2022-10-16T14:59:35;18.00;99.90
15113;DHT22;7657;50.140;7.076;2022-10-16T15:02:16;18.00;99.90
15113;DHT22;7657;50.140;7.076;2022-10-16T15:04:46;17.90;99.90
15113;DHT22;7657;50.140;7.076;2022-10-16T15:07:13;17.90;99.90
15113;DHT22;7657;50.140;7.076;2022-10-16T15:09:40;17.90;99.90
15113;DHT22;7657;50.140;7.076;2022-10-16T15:12:07;17.90;99.90
15113;DHT22;7657;50.140;7.076;2022-10-16T15:14:34;17.90;99.90
15113;DHT22;7657;50.140;7.076;2022-10-16T15:17:01;17.90;99.90
15113;DHT22;7657;50.140;7.076;2022-10-16T15:19:28;17.90;99.90
15113;DHT22;7657;50.140;7.076;2022-10-16T15:21:57;17.90;99.90
15113;DHT22;7657;50.140;7.076;2022-10-16T15:24:24;17.90;99.90
15113;DHT22;7657;50.140;7.076;2022-10-16T15:26:51;17.90;99.90
15113;DHT22;7657;50.140;7.076;2022-10-16T15:29:18;17.90;99.90
15113;DHT22;7657;50.140;7.076;2022-10-16T15:31:45;17.80;99.90
15113;DHT22;7657;50.140;7.076;2022-10-16T15:34:13;17.80;99.90
15113;DHT22;7657;50.140;7.076;2022-10-16T15:36:40;17.80;99.90
15113;DHT22;7657;50.140;7.076;2022-10-16T15:39:12;17.80;99.90
15113;DHT22;7657;50.140;7.076;2022-10-16T15:41:39;17.80;99.90
15113;DHT22;7657;50.140;7.076;2022-10-16T15:44:07;17.80;99.90
15113;DHT22;7657;50.140;7.076;2022-10-16T15:46:34;17.80;99.90
15113;DHT22;7657;50.140;7.076;2022-10-16T15:49:03;17.70;99.90
15113;DHT22;7657;50.140;7.076;2022-10-16T15:51:30;17.70;99.90
15113;DHT22;7657;50.140;7.076;2022-10-16T15:53:58;17.70;99.90
15113;DHT22;7657;50.140;7.076;2022-10-16T15:56:28;17.60;99.90
15113;DHT22;7657;50.140;7.076;2022-10-16T15:58:58;17.60;99.90
15113;DHT22;7657;50.140;7.076;2022-10-16T16:01:25;17.60;99.90
15113;DHT22;7657;50.140;7.076;2022-10-16T16:03:53;17.60;99.90
15113;DHT22;7657;50.140;7.076;2022-10-16T16:06:20;17.50;99.90
15113;DHT22;7657;50.140;7.076;2022-10-16T16:08:48;17.50;99.90